sensor_id;sensor_type;location;lat;lon;timestamp;pressure;altitude;pressure_sealevel;temperature;humidity
71145;BME280;58812;47.698;17.726;2023-11-22T00:00:19;99992.87;;;2.56;100.00
71145;BME280;58812;47.698;17.726;2023-11-22T00:02:46;99997.22;;;2.57;100.00
71145;BME280;58812;47.698;17.726;2023-11-22T00:05:12;99995.72;;;2.53;100.00
71145;BME280;58812;47.698;17.726;2023-11-22T00:07:38;99994.75;;;2.54;100.00
71145;BME280;58812;47.698;17.726;2023-11-22T00:10:04;99987.47;;;2.45;100.00
71145;BME280;58812;47.698;17.726;2023-11-22T00:12:30;99982.25;;;2.43;100.00
71145;BME280;58812;47.698;17.726;2023-11-22T00:15:04;99995.56;;;2.41;100.00
71145;BME280;58812;47.698;17.726;2023-11-22T00:17:31;99996.75;;;2.37;100.00
71145;BME280;58812;47.698;17.726;2023-11-22T00:19:57;99999.56;;;2.34;100.00
71145;BME280;58812;47.698;17.726;2023-11-22T00:22:23;100009.47;;;2.31;100.00
71145;BME280;58812;47.698;17.726;2023-11-22T00:24:48;100003.19;;;2.19;100.00
71145;BME280;58812;47.698;17.726;2023-11-22T00:27:15;100004.16;;;2.18;100.00
71145;BME280;58812;47.698;17.726;2023-11-22T00:29:41;99997.72;;;1.95;100.00
71145;BME280;58812;47.698;17.726;2023-11-22T00:32:06;99990.84;;;1.93;100.00
71145;BME280;58812;47.698;17.726;2023-11-22T00:34:32;99988.59;;;1.86;100.00
71145;BME280;58812;47.698;17.726;2023-11-22T00:36:58;99993.16;;;1.84;100.00
71145;BME280;58812;47.698;17.726;2023-11-22T00:39:23;99995.56;;;1.87;100.00
71145;BME280;58812;47.698;17.726;2023-11-22T00:41:49;99993.50;;;1.93;100.00
71145;BME280;58812;47.698;17.726;2023-11-22T00:44:14;99997.72;;;2.22;100.00
71145;BME280;58812;47.698;17.726;2023-11-22T00:46:40;99997.47;;;2.39;100.00
71145;BME280;58812;47.698;17.726;2023-11-22T00:49:05;99987.22;;;2.48;100.00
71145;BME280;58812;47.698;17.726;2023-11-22T00:51:31;99993.09;;;2.78;100.00
71145;BME280;58812;47.698;17.726;2023-11-22T00:53:58;99984.88;;;2.95;100.00
71145;BME280;58812;47.698;17.726;2023-11-22T00:56:24;99992.59;;;3.11;100.00
71145;BME280;58812;47.698;17.726;2023-11-22T00:58:49;99992.31;;;3.16;100.00
71145;BME280;58812;47.698;17.726;2023-11-22T01:01:16;99994.50;;;3.35;100.00
71145;BME280;58812;47.698;17.726;2023-11-22T01:03:41;99996.06;;;3.37;100.00
71145;BME280;58812;47.698;17.726;2023-11-22T01:06:07;100008.97;;;3.55;100.00
71145;BME280;58812;47.698;17.726;2023-11-22T01:08:32;100010.13;;;3.63;100.00
71145;BME280;58812;47.698;17.726;2023-11-22T01:10:58;100015.62;;;3.60;100.00
71145;BME280;58812;47.698;17.726;2023-11-22T01:13:23;100020.84;;;3.62;100.00
71145;BME280;58812;47.698;17.726;2023-11-22T01:15:48;100021.03;;;3.59;100.00
71145;BME280;58812;47.698;17.726;2023-11-22T01:18:14;100018.19;;;3.62;100.00
71145;BME280;58812;47.698;17.726;2023-11-22T01:20:39;100023.16;;;3.54;100.00
71145;BME280;58812;47.698;17.726;2023-11-22T01:23:04;100023.50;;;3.62;100.00
71145;BME280;58812;47.698;17.726;2023-11-22T01:25:30;100028.25;;;3.57;100.00
71145;BME280;58812;47.698;17.726;2023-11-22T01:27:56;100028.03;;;3.60;100.00
71145;BME280;58812;47.698;17.726;2023-11-22T01:30:21;100033.97;;;3.63;100.00
71145;BME280;58812;47.698;17.726;2023-11-22T01:32:47;100035.00;;;3.61;100.00
71145;BME280;58812;47.698;17.726;2023-11-22T01:35:14;100033.56;;;3.57;100.00
71145;BME280;58812;47.698;17.726;2023-11-22T01:37:40;100035.25;;;3.58;100.00
71145;BME280;58812;47.698;17.726;2023-11-22T01:40:06;100037.78;;;3.59;100.00
71145;BME280;58812;47.698;17.726;2023-11-22T01:42:33;100043.28;;;3.69;100.00
71145;BME280;58812;47.698;17.726;2023-11-22T01:44:59;100033.22;;;3.74;100.00
71145;BME280;58812;47.698;17.726;2023-11-22T01:47:25;100032.00;;;3.78;100.00
71145;BME280;58812;47.698;17.726;2023-11-22T01:49:52;100041.44;;;3.82;100.00
71145;BME280;58812;47.698;17.726;2023-11-22T01:52:18;100047.47;;;3.84;100.00
71145;BME280;58812;47.698;17.726;2023-11-22T01:54:43;100049.47;;;3.93;100.00
71145;BME280;58812;47.698;17.726;2023-11-22T01:57:09;100044.69;;;3.98;100.00
71145;BME280;58812;47.698;17.726;2023-11-22T01:59:35;100047.75;;;4.05;100.00
71145;BME280;58812;47.698;17.726;2023-11-22T02:02:00;100048.34;;;4.09;100.00
71145;BME280;58812;47.698;17.726;2023-11-22T02:04:27;100049.84;;;4.13;100.00
71145;BME280;58812;47.698;17.726;2023-11-22T02:06:52;100049.09;;;4.11;100.00
71145;BME280;58812;47.698;17.726;2023-11-22T02:09:18;100049.31;;;4.08;100.00
71145;BME280;58812;47.698;17.726;2023-11-22T02:11:44;100049.31;;;4.08;100.00
71145;BME280;58812;47.698;17.726;2023-11-22T02:14:14;100041.38;;;4.08;100.00
71145;BME280;58812;47.698;17.726;2023-11-22T02:16:40;100044.25;;;4.05;100.00
71145;BME280;58812;47.698;17.726;2023-11-22T02:19:16;100045.94;;;4.06;100.00
71145;BME280;58812;47.698;17.726;2023-11-22T02:21:42;100048.59;;;4.06;100.00
71145;BME280;58812;47.698;17.726;2023-11-22T02:24:08;100052.72;;;4.10;100.00
71145;BME280;58812;47.698;17.726;2023-11-22T02:26:33;100052.94;;;4.07;100.00
71145;BME280;58812;47.698;17.726;2023-11-22T02:28:59;100055.56;;;4.07;100.00
71145;BME280;58812;47.698;17.726;2023-11-22T02:31:25;100056.53;;;4.06;100.00
71145;BME280;58812;47.698;17.726;2023-11-22T02:33:52;100064.47;;;4.06;100.00
71145;BME280;58812;47.698;17.726;2023-11-22T02:36:18;100072.44;;;4.06;100.00
71145;BME280;58812;47.698;17.726;2023-11-22T02:38:43;100071.59;;;4.05;100.00
71145;BME280;58812;47.698;17.726;2023-11-22T02:41:11;100069.97;;;4.02;100.00
71145;BME280;58812;47.698;17.726;2023-11-22T02:43:36;100070.34;;;3.98;100.00
71145;BME280;58812;47.698;17.726;2023-11-22T02:46:01;100067.78;;;3.96;100.00
71145;BME280;58812;47.698;17.726;2023-11-22T02:48:29;100071.91;;;4.00;100.00
71145;BME280;58812;47.698;17.726;2023-11-22T02:50:54;100075.84;;;3.95;100.00
71145;BME280;58812;47.698;17.726;2023-11-22T02:53:20;100086.44;;;3.95;100.00
71145;BME280;58812;47.698;17.726;2023-11-22T02:55:46;100075.84;;;3.95;100.00
71145;BME280;58812;47.698;17.726;2023-11-22T02:58:12;100078.91;;;4.01;100.00
71145;BME280;58812;47.698;17.726;2023-11-22T03:00:40;100086.19;;;4.11;100.00
71145;BME280;58812;47.698;17.726;2023-11-22T03:03:06;100084.28;;;4.13;100.00
71145;BME280;58812;47.698;17.726;2023-11-22T03:05:35;100093.69;;;4.17;100.00
71145;BME280;58812;47.698;17.726;2023-11-22T03:08:02;100091.91;;;4.17;100.00
71145;BME280;58812;47.698;17.726;2023-11-22T03:10:27;100103.09;;;4.21;100.00
71145;BME280;58812;47.698;17.726;2023-11-22T03:12:53;100108.00;;;4.27;100.00
71145;BME280;58812;47.698;17.726;2023-11-22T03:15:19;100119.19;;;4.31;100.00
71145;BME280;58812;47.698;17.726;2023-11-22T03:17:44;100113.69;;;4.34;100.00
71145;BME280;58812;47.698;17.726;2023-11-22T03:20:10;100110.94;;;4.35;100.00
71145;BME280;58812;47.698;17.726;2023-11-22T03:22:36;100118.87;;;4.35;100.00
71145;BME280;58812;47.698;17.726;2023-11-22T03:25:03;100121.72;;;4.32;100.00
71145;BME280;58812;47.698;17.726;2023-11-22T03:27:29;100126.09;;;4.33;100.00
71145;BME280;58812;47.698;17.726;2023-11-22T03:29:54;100118.63;;;4.38;100.00
71145;BME280;58812;47.698;17.726;2023-11-22T03:32:20;100126.59;;;4.38;100.00
71145;BME280;58812;47.698;17.726;2023-11-22T03:34:45;100130.19;;;4.37;100.00
71145;BME280;58812;47.698;17.726;2023-11-22T03:37:11;100133.69;;;4.38;100.00
71145;BME280;58812;47.698;17.726;2023-11-22T03:39:36;100149.28;;;4.42;100.00
71145;BME280;58812;47.698;17.726;2023-11-22T03:42:02;100151.94;;;4.42;100.00
71145;BME280;58812;47.698;17.726;2023-11-22T03:44:27;100157.94;;;4.44;100.00
71145;BME280;58812;47.698;17.726;2023-11-22T03:46:53;100164.97;;;4.45;100.00
71145;BME280;58812;47.698;17.726;2023-11-22T03:49:19;100161.38;;;4.46;100.00
71145;BME280;58812;47.698;17.726;2023-11-22T03:51:44;100166.66;;;4.46;100.00
71145;BME280;58812;47.698;17.726;2023-11-22T03:54:11;100159.66;;;4.45;100.00
71145;BME280;58812;47.698;17.726;2023-11-22T03:56:37;100168.47;;;4.46;100.00
71145;BME280;58812;47.698;17.726;2023-11-22T03:59:03;100172.69;;;4.48;100.00
71145;BME280;58812;47.698;17.726;2023-11-22T04:01:28;100167.50;;;4.47;100.00
71145;BME280;58812;47.698;17.726;2023-11-22T04:03:54;100164.75;;;4.48;100.00
71145;BME280;58812;47.698;17.726;2023-11-22T04:06:19;100167.38;;;4.48;100.00
71145;BME280;58812;47.698;17.726;2023-11-22T04:08:46;100171.72;;;4.49;100.00
71145;BME280;58812;47.698;17.726;2023-11-22T04:11:12;100177.03;;;4.49;100.00
71145;BME280;58812;47.698;17.726;2023-11-22T04:13:38;100183.16;;;4.50;100.00
71145;BME280;58812;47.698;17.726;2023-11-22T04:16:05;100178.09;;;4.47;100.00
71145;BME280;58812;47.698;17.726;2023-11-22T04:18:36;100184.25;;;4.47;100.00
71145;BME280;58812;47.698;17.726;2023-11-22T04:21:02;100186.06;;;4.47;100.00
71145;BME280;58812;47.698;17.726;2023-11-22T04:23:30;100190.53;;;4.46;100.00
71145;BME280;58812;47.698;17.726;2023-11-22T04:25:56;100198.47;;;4.46;100.00
71145;BME280;58812;47.698;17.726;2023-11-22T04:28:23;100193.16;;;4.46;100.00
71145;BME280;58812;47.698;17.726;2023-11-22T04:30:49;100194.84;;;4.47;100.00
71145;BME280;58812;47.698;17.726;2023-11-22T04:33:14;100200.16;;;4.47;100.00
71145;BME280;58812;47.698;17.726;2023-11-22T04:35:39;100209.06;;;4.46;100.00
71145;BME280;58812;47.698;17.726;2023-11-22T04:38:06;100203.88;;;4.45;100.00
71145;BME280;58812;47.698;17.726;2023-11-22T04:40:32;100196.87;;;4.44;100.00
71145;BME280;58812;47.698;17.726;2023-11-22T04:42:57;100202.28;;;4.42;100.00
71145;BME280;58812;47.698;17.726;2023-11-22T04:45:23;100205.91;;;4.41;100.00
71145;BME280;58812;47.698;17.726;2023-11-22T04:47:48;100214.81;;;4.40;100.00
71145;BME280;58812;47.698;17.726;2023-11-22T04:50:14;100216.63;;;4.40;100.00
71145;BME280;58812;47.698;17.726;2023-11-22T04:52:39;100216.69;;;4.38;100.00
71145;BME280;58812;47.698;17.726;2023-11-22T04:55:05;100224.75;;;4.37;100.00
71145;BME280;58812;47.698;17.726;2023-11-22T04:57:30;100231.75;;;4.38;100.00
71145;BME280;58812;47.698;17.726;2023-11-22T04:59:55;100242.34;;;4.38;100.00
71145;BME280;58812;47.698;17.726;2023-11-22T05:02:21;100240.56;;;4.38;100.00
71145;BME280;58812;47.698;17.726;2023-11-22T05:04:46;100240.66;;;4.37;100.00
71145;BME280;58812;47.698;17.726;2023-11-22T05:07:14;100246.81;;;4.37;100.00
71145;BME280;58812;47.698;17.726;2023-11-22T05:09:40;100256.69;;;4.35;100.00
71145;BME280;58812;47.698;17.726;2023-11-22T05:12:06;100262.94;;;4.34;100.00
71145;BME280;58812;47.698;17.726;2023-11-22T05:14:31;100265.69;;;4.33;100.00
71145;BME280;58812;47.698;17.726;2023-11-22T05:16:57;100265.06;;;4.29;100.00
71145;BME280;58812;47.698;17.726;2023-11-22T05:19:22;100263.56;;;4.25;100.00
71145;BME280;58812;47.698;17.726;2023-11-22T05:21:48;100276.09;;;4.23;100.00
71145;BME280;58812;47.698;17.726;2023-11-22T05:24:13;100277.97;;;4.21;100.00
71145;BME280;58812;47.698;17.726;2023-11-22T05:26:40;100279.91;;;4.19;100.00
71145;BME280;58812;47.698;17.726;2023-11-22T05:29:05;100282.78;;;4.16;100.00
71145;BME280;58812;47.698;17.726;2023-11-22T05:31:31;100286.56;;;4.12;100.00
71145;BME280;58812;47.698;17.726;2023-11-22T05:33:56;100287.72;;;4.08;100.00
71145;BME280;58812;47.698;17.726;2023-11-22T05:36:22;100280.31;;;4.00;100.00
71145;BME280;58812;47.698;17.726;2023-11-22T05:38:47;100306.78;;;4.00;100.00
71145;BME280;58812;47.698;17.726;2023-11-22T05:41:12;100306.16;;;3.96;100.00
71145;BME280;58812;47.698;17.726;2023-11-22T05:43:38;100315.56;;;3.88;100.00
71145;BME280;58812;47.698;17.726;2023-11-22T05:46:04;100313.22;;;3.83;100.00
71145;BME280;58812;47.698;17.726;2023-11-22T05:48:29;100317.41;;;3.73;100.00
71145;BME280;58812;47.698;17.726;2023-11-22T05:50:55;100319.56;;;3.68;100.00
71145;BME280;58812;47.698;17.726;2023-11-22T05:53:20;100323.62;;;3.59;100.00
71145;BME280;58812;47.698;17.726;2023-11-22T05:55:47;100322.97;;;3.56;100.00
71145;BME280;58812;47.698;17.726;2023-11-22T05:58:15;100332.09;;;3.52;100.00
71145;BME280;58812;47.698;17.726;2023-11-22T06:00:45;100334.91;;;3.48;100.00
71145;BME280;58812;47.698;17.726;2023-11-22T06:03:11;100346.47;;;3.47;100.00
71145;BME280;58812;47.698;17.726;2023-11-22T06:05:37;100351.97;;;3.44;100.00
71145;BME280;58812;47.698;17.726;2023-11-22T06:08:02;100353.84;;;3.42;100.00
71145;BME280;58812;47.698;17.726;2023-11-22T06:10:28;100354.06;;;3.39;100.00
71145;BME280;58812;47.698;17.726;2023-11-22T06:12:53;100362.75;;;3.41;100.00
71145;BME280;58812;47.698;17.726;2023-11-22T06:15:19;100361.22;;;3.37;100.00
71145;BME280;58812;47.698;17.726;2023-11-22T06:17:46;100373.81;;;3.34;100.00
71145;BME280;58812;47.698;17.726;2023-11-22T06:20:12;100379.28;;;3.31;100.00
71145;BME280;58812;47.698;17.726;2023-11-22T06:22:38;100369.31;;;3.21;100.00
71145;BME280;58812;47.698;17.726;2023-11-22T06:25:08;100382.59;;;3.20;100.00
71145;BME280;58812;47.698;17.726;2023-11-22T06:27:33;100386.41;;;3.16;100.00
71145;BME280;58812;47.698;17.726;2023-11-22T06:29:59;100388.28;;;3.14;100.00
71145;BME280;58812;47.698;17.726;2023-11-22T06:32:24;100395.69;;;3.09;100.00
71145;BME280;58812;47.698;17.726;2023-11-22T06:34:49;100401.38;;;3.03;100.00
71145;BME280;58812;47.698;17.726;2023-11-22T06:37:16;100406.66;;;3.03;100.00
71145;BME280;58812;47.698;17.726;2023-11-22T06:39:41;100405.97;;;2.99;100.00
71145;BME280;58812;47.698;17.726;2023-11-22T06:42:07;100411.38;;;2.98;100.00
71145;BME280;58812;47.698;17.726;2023-11-22T06:44:32;100421.94;;;2.98;100.00
71145;BME280;58812;47.698;17.726;2023-11-22T06:46:58;100430.91;;;2.95;100.00
71145;BME280;58812;47.698;17.726;2023-11-22T06:49:23;100427.41;;;2.94;100.00
71145;BME280;58812;47.698;17.726;2023-11-22T06:51:48;100436.97;;;2.97;100.00
71145;BME280;58812;47.698;17.726;2023-11-22T06:54:14;100436.97;;;2.97;100.00
71145;BME280;58812;47.698;17.726;2023-11-22T06:56:39;100443.00;;;2.99;100.00
71145;BME280;58812;47.698;17.726;2023-11-22T06:59:04;100449.88;;;3.02;100.00
71145;BME280;58812;47.698;17.726;2023-11-22T07:01:30;100457.75;;;3.03;100.00
71145;BME280;58812;47.698;17.726;2023-11-22T07:03:55;100463.03;;;3.03;100.00
71145;BME280;58812;47.698;17.726;2023-11-22T07:06:21;100467.47;;;3.03;100.00
71145;BME280;58812;47.698;17.726;2023-11-22T07:08:48;100468.22;;;3.05;100.00
71145;BME280;58812;47.698;17.726;2023-11-22T07:11:21;100477.00;;;3.05;100.00
71145;BME280;58812;47.698;17.726;2023-11-22T07:13:48;100478.59;;;3.08;100.00
71145;BME280;58812;47.698;17.726;2023-11-22T07:16:13;100486.53;;;3.08;100.00
71145;BME280;58812;47.698;17.726;2023-11-22T07:18:40;100486.38;;;3.11;100.00
71145;BME280;58812;47.698;17.726;2023-11-22T07:21:05;100476.53;;;3.13;100.00
71145;BME280;58812;47.698;17.726;2023-11-22T07:23:31;100479.16;;;3.13;100.00
71145;BME280;58812;47.698;17.726;2023-11-22T07:25:56;100478.06;;;3.17;100.00
71145;BME280;58812;47.698;17.726;2023-11-22T07:28:22;100473.44;;;3.20;100.00
71145;BME280;58812;47.698;17.726;2023-11-22T07:30:48;100477.66;;;3.23;100.00
71145;BME280;58812;47.698;17.726;2023-11-22T07:33:14;100487.97;;;3.28;100.00
71145;BME280;58812;47.698;17.726;2023-11-22T07:35:40;100498.34;;;3.31;100.00
71145;BME280;58812;47.698;17.726;2023-11-22T07:38:06;100517.44;;;3.36;100.00
71145;BME280;58812;47.698;17.726;2023-11-22T07:40:34;100526.25;;;3.36;100.00
71145;BME280;58812;47.698;17.726;2023-11-22T07:42:59;100532.00;;;3.43;100.00
71145;BME280;58812;47.698;17.726;2023-11-22T07:45:25;100544.97;;;3.47;100.00
71145;BME280;58812;47.698;17.726;2023-11-22T07:47:50;100541.28;;;3.50;100.00
71145;BME280;58812;47.698;17.726;2023-11-22T07:50:18;100533.81;;;3.57;100.00
71145;BME280;58812;47.698;17.726;2023-11-22T07:52:45;100537.09;;;3.60;100.00
71145;BME280;58812;47.698;17.726;2023-11-22T07:55:11;100536.25;;;3.60;100.00
71145;BME280;58812;47.698;17.726;2023-11-22T07:57:37;100537.78;;;3.64;100.00
71145;BME280;58812;47.698;17.726;2023-11-22T08:00:04;100539.09;;;3.71;100.00
71145;BME280;58812;47.698;17.726;2023-11-22T08:02:32;100537.84;;;3.77;100.00
71145;BME280;58812;47.698;17.726;2023-11-22T08:04:58;100542.97;;;3.80;99.54
71145;BME280;58812;47.698;17.726;2023-11-22T08:07:27;100544.47;;;3.84;100.00
71145;BME280;58812;47.698;17.726;2023-11-22T08:09:53;100556.56;;;3.88;98.95
71145;BME280;58812;47.698;17.726;2023-11-22T08:12:19;100526.53;;;3.74;99.19
71145;BME280;58812;47.698;17.726;2023-11-22T08:14:44;100557.88;;;3.95;98.99
71145;BME280;58812;47.698;17.726;2023-11-22T08:17:10;100564.47;;;4.02;99.10
71145;BME280;58812;47.698;17.726;2023-11-22T08:19:39;100567.06;;;4.04;98.45
71145;BME280;58812;47.698;17.726;2023-11-22T08:22:05;100575.13;;;4.15;98.39
71145;BME280;58812;47.698;17.726;2023-11-22T08:24:31;100564.53;;;4.15;98.05
71145;BME280;58812;47.698;17.726;2023-11-22T08:26:57;100571.19;;;4.22;98.10
71145;BME280;58812;47.698;17.726;2023-11-22T08:29:24;100576.25;;;4.25;97.28
71145;BME280;58812;47.698;17.726;2023-11-22T08:31:49;100565.87;;;4.22;96.99
71145;BME280;58812;47.698;17.726;2023-11-22T08:34:16;100577.78;;;4.29;97.41
71145;BME280;58812;47.698;17.726;2023-11-22T08:36:42;100572.75;;;4.24;97.16
71145;BME280;58812;47.698;17.726;2023-11-22T08:39:07;100579.47;;;4.30;96.93
71145;BME280;58812;47.698;17.726;2023-11-22T08:41:33;100586.69;;;4.28;95.49
71145;BME280;58812;47.698;17.726;2023-11-22T08:43:58;100585.06;;;4.25;95.67
71145;BME280;58812;47.698;17.726;2023-11-22T08:46:25;100579.87;;;4.24;95.66
71145;BME280;58812;47.698;17.726;2023-11-22T08:48:51;100579.81;;;4.38;95.92
71145;BME280;58812;47.698;17.726;2023-11-22T08:51:17;100576.97;;;4.41;94.46
71145;BME280;58812;47.698;17.726;2023-11-22T08:53:43;100596.50;;;4.40;93.95
71145;BME280;58812;47.698;17.726;2023-11-22T08:56:11;100592.28;;;4.50;93.96
71145;BME280;58812;47.698;17.726;2023-11-22T08:58:40;100596.13;;;4.59;93.82
71145;BME280;58812;47.698;17.726;2023-11-22T09:01:06;100606.28;;;4.52;92.75
71145;BME280;58812;47.698;17.726;2023-11-22T09:03:32;100614.69;;;4.59;92.27
71145;BME280;58812;47.698;17.726;2023-11-22T09:05:58;100619.06;;;4.87;91.59
71145;BME280;58812;47.698;17.726;2023-11-22T09:08:23;100623.84;;;4.95;89.81
71145;BME280;58812;47.698;17.726;2023-11-22T09:10:49;100634.56;;;4.93;89.16
71145;BME280;58812;47.698;17.726;2023-11-22T09:13:16;100638.94;;;5.07;87.73
71145;BME280;58812;47.698;17.726;2023-11-22T09:15:42;100640.37;;;5.38;86.23
71145;BME280;58812;47.698;17.726;2023-11-22T09:18:10;100645.09;;;5.60;85.89
71145;BME280;58812;47.698;17.726;2023-11-22T09:20:37;100645.81;;;5.75;85.35
71145;BME280;58812;47.698;17.726;2023-11-22T09:23:02;100656.56;;;5.99;84.22
71145;BME280;58812;47.698;17.726;2023-11-22T09:25:30;100657.50;;;5.85;82.69
71145;BME280;58812;47.698;17.726;2023-11-22T09:27:57;100664.31;;;5.89;83.61
71145;BME280;58812;47.698;17.726;2023-11-22T09:30:27;100666.44;;;6.09;81.97
71145;BME280;58812;47.698;17.726;2023-11-22T09:33:14;100666.47;;;6.46;80.63
71145;BME280;58812;47.698;17.726;2023-11-22T09:35:45;100667.09;;;6.62;79.94
71145;BME280;58812;47.698;17.726;2023-11-22T09:38:12;100662.53;;;6.64;79.63
71145;BME280;58812;47.698;17.726;2023-11-22T09:40:41;100663.19;;;6.55;79.06
71145;BME280;58812;47.698;17.726;2023-11-22T09:43:07;100665.38;;;5.74;82.16
71145;BME280;58812;47.698;17.726;2023-11-22T09:45:33;100658.66;;;6.32;81.44
71145;BME280;58812;47.698;17.726;2023-11-22T09:47:59;100652.69;;;6.41;80.13
71145;BME280;58812;47.698;17.726;2023-11-22T09:53:36;100651.25;;;7.09;77.46
71145;BME280;58812;47.698;17.726;2023-11-22T09:56:07;100649.00;;;7.27;76.71
71145;BME280;58812;47.698;17.726;2023-11-22T09:58:34;100633.66;;;7.30;75.60
71145;BME280;58812;47.698;17.726;2023-11-22T10:01:00;100634.63;;;7.05;75.41
71145;BME280;58812;47.698;17.726;2023-11-22T10:03:27;100634.34;;;7.21;75.96
71145;BME280;58812;47.698;17.726;2023-11-22T10:05:58;100627.28;;;7.55;75.44
71145;BME280;58812;47.698;17.726;2023-11-22T10:08:25;100639.16;;;7.51;74.12
71145;BME280;58812;47.698;17.726;2023-11-22T10:10:53;100641.81;;;7.51;73.15
71145;BME280;58812;47.698;17.726;2023-11-22T10:13:19;100633.50;;;7.78;72.52
71145;BME280;58812;47.698;17.726;2023-11-22T10:15:46;100656.19;;;8.51;71.17
71145;BME280;58812;47.698;17.726;2023-11-22T10:18:13;100648.91;;;7.04;73.62
71145;BME280;58812;47.698;17.726;2023-11-22T10:20:40;100653.78;;;6.62;76.77
71145;BME280;58812;47.698;17.726;2023-11-22T10:23:10;100651.47;;;6.08;79.32
71145;BME280;58812;47.698;17.726;2023-11-22T10:25:50;100653.69;;;6.14;79.47
71145;BME280;58812;47.698;17.726;2023-11-22T10:28:20;100661.56;;;6.65;77.83
71145;BME280;58812;47.698;17.726;2023-11-22T10:30:48;100668.38;;;7.29;75.33
71145;BME280;58812;47.698;17.726;2023-11-22T10:33:15;100667.94;;;7.46;75.29
71145;BME280;58812;47.698;17.726;2023-11-22T10:35:46;100671.16;;;7.62;73.96
71145;BME280;58812;47.698;17.726;2023-11-22T10:38:14;100673.84;;;7.85;71.76
71145;BME280;58812;47.698;17.726;2023-11-22T10:40:39;100674.59;;;8.09;71.29
71145;BME280;58812;47.698;17.726;2023-11-22T10:43:06;100688.31;;;6.88;74.31
71145;BME280;58812;47.698;17.726;2023-11-22T10:45:33;100700.78;;;7.22;73.54
71145;BME280;58812;47.698;17.726;2023-11-22T10:48:00;100699.59;;;8.19;70.77
71145;BME280;58812;47.698;17.726;2023-11-22T10:50:26;100702.00;;;8.22;70.57
71145;BME280;58812;47.698;17.726;2023-11-22T10:52:52;100711.94;;;8.65;68.64
71145;BME280;58812;47.698;17.726;2023-11-22T10:55:21;100704.16;;;8.17;68.04
71145;BME280;58812;47.698;17.726;2023-11-22T10:57:51;100711.37;;;8.50;68.48
71145;BME280;58812;47.698;17.726;2023-11-22T11:00:19;100708.16;;;8.12;68.75
71145;BME280;58812;47.698;17.726;2023-11-22T11:02:51;100711.47;;;8.15;69.65
71145;BME280;58812;47.698;17.726;2023-11-22T11:05:21;100734.22;;;9.09;67.70
71145;BME280;58812;47.698;17.726;2023-11-22T11:08:08;100738.06;;;8.39;69.36
71145;BME280;58812;47.698;17.726;2023-11-22T11:10:44;100752.69;;;7.41;73.14
71145;BME280;58812;47.698;17.726;2023-11-22T11:13:13;100762.63;;;6.78;76.16
71145;BME280;58812;47.698;17.726;2023-11-22T11:15:42;100757.00;;;6.70;77.01
71145;BME280;58812;47.698;17.726;2023-11-22T11:18:11;100771.16;;;6.45;78.03
71145;BME280;58812;47.698;17.726;2023-11-22T11:23:17;100786.19;;;6.08;80.14
71145;BME280;58812;47.698;17.726;2023-11-22T11:25:47;100785.00;;;5.99;80.99
71145;BME280;58812;47.698;17.726;2023-11-22T11:28:14;100794.38;;;5.78;82.17
71145;BME280;58812;47.698;17.726;2023-11-22T11:30:46;100774.41;;;5.85;82.31
71145;BME280;58812;47.698;17.726;2023-11-22T11:33:34;100786.19;;;6.08;81.99
71145;BME280;58812;47.698;17.726;2023-11-22T11:36:02;100785.53;;;5.65;83.04
71145;BME280;58812;47.698;17.726;2023-11-22T11:38:34;100788.22;;;5.77;83.47
71145;BME280;58812;47.698;17.726;2023-11-22T11:41:10;100777.34;;;5.68;83.71
71145;BME280;58812;47.698;17.726;2023-11-22T11:43:44;100784.62;;;5.51;83.23
71145;BME280;58812;47.698;17.726;2023-11-22T11:46:14;100793.28;;;5.68;82.74
71145;BME280;58812;47.698;17.726;2023-11-22T11:48:51;100796.44;;;5.47;83.33
71145;BME280;58812;47.698;17.726;2023-11-22T11:51:19;100802.38;;;5.51;83.44
71145;BME280;58812;47.698;17.726;2023-11-22T11:53:45;100805.94;;;5.37;83.79
71145;BME280;58812;47.698;17.726;2023-11-22T11:56:11;100809.22;;;5.68;83.47
71145;BME280;58812;47.698;17.726;2023-11-22T11:58:37;100800.44;;;5.40;83.41
71145;BME280;58812;47.698;17.726;2023-11-22T12:01:04;100790.91;;;5.90;82.70
71145;BME280;58812;47.698;17.726;2023-11-22T12:03:30;100802.78;;;6.37;78.71
71145;BME280;58812;47.698;17.726;2023-11-22T12:05:55;100810.53;;;6.40;78.86
71145;BME280;58812;47.698;17.726;2023-11-22T12:08:21;100805.81;;;6.82;76.35
71145;BME280;58812;47.698;17.726;2023-11-22T12:10:47;100813.63;;;6.59;76.24
71145;BME280;58812;47.698;17.726;2023-11-22T12:13:17;100816.81;;;6.13;79.21
71145;BME280;58812;47.698;17.726;2023-11-22T12:15:50;100820.50;;;5.71;79.82
71145;BME280;58812;47.698;17.726;2023-11-22T12:18:16;100815.41;;;5.41;81.19
71145;BME280;58812;47.698;17.726;2023-11-22T12:20:41;100818.47;;;5.35;82.16
71145;BME280;58812;47.698;17.726;2023-11-22T12:23:08;100813.28;;;5.19;82.87
71145;BME280;58812;47.698;17.726;2023-11-22T12:25:35;100803.53;;;5.20;82.91
71145;BME280;58812;47.698;17.726;2023-11-22T12:28:00;100815.03;;;5.33;82.90
71145;BME280;58812;47.698;17.726;2023-11-22T12:30:33;100808.34;;;5.54;81.32
71145;BME280;58812;47.698;17.726;2023-11-22T12:33:06;100813.97;;;5.89;80.57
71145;BME280;58812;47.698;17.726;2023-11-22T12:35:34;100819.38;;;5.48;80.76
71145;BME280;58812;47.698;17.726;2023-11-22T12:38:01;100822.12;;;6.13;78.99
71145;BME280;58812;47.698;17.726;2023-11-22T12:40:29;100811.91;;;6.33;77.11
71145;BME280;58812;47.698;17.726;2023-11-22T12:42:58;100810.84;;;7.10;75.08
71145;BME280;58812;47.698;17.726;2023-11-22T12:45:26;100805.75;;;7.44;73.94
71145;BME280;58812;47.698;17.726;2023-11-22T12:47:54;100818.31;;;7.05;74.45